Time;durP1;ratioP1;P1;durP2;ratioP2;P2;SDS_P1;SDS_P2;PMS_P1;PMS_P2;Temp;Humidity;BMP_temperature;BMP_pressure;BME280_temperature;BME280_humidity;BME280_pressure;Samples;Min_cycle;Max_cycle;Signal;HPM_P1;HPM_P2
2024/03/04 00:00:52;;;;;;;7.67;3.87;;;;;;;;;;764654;180;937329;-65
2024/03/04 00:03:17;;;;;;;8.60;4.10;;;;;;;;;;771206;179;922293;-65
2024/03/04 00:05:43;;;;;;;6.33;3.63;;;;;;;;;;771852;179;918446;-65
2024/03/04 00:08:09;;;;;;;6.40;4.30;;;;;;;;;;777550;179;920070;-65
2024/03/04 00:10:35;;;;;;;5.93;3.30;;;;;;;;;;768238;181;918773;-65
2024/03/04 00:13:01;;;;;;;8.20;3.37;;;;;;;;;;772034;180;918121;-65
2024/03/04 00:15:27;;;;;;;9.00;4.40;;;;;;;;;;773485;181;919488;-65
2024/03/04 00:17:52;;;;;;;9.20;4.13;;;;;;;;;;763311;180;915896;-66
2024/03/04 00:20:18;;;;;;;8.60;3.57;;;;;;;;;;768960;181;922377;-65
2024/03/04 00:22:47;;;;;;;5.57;3.53;;;;;;;;;;776494;180;920983;-65
2024/03/04 00:25:15;;;;;;;6.50;3.40;;;;;;;;;;761729;180;915182;-65
2024/03/04 00:27:37;;;;;;;6.63;4.17;;;;;;;;;;762158;180;921386;-65
2024/03/04 00:30:04;;;;;;;5.93;4.30;;;;;;;;;;773782;180;959809;-65
2024/03/04 00:32:29;;;;;;;5.87;3.90;;;;;;;;;;768770;180;919203;-65
2024/03/04 00:34:54;;;;;;;6.70;3.60;;;;;;;;;;772839;180;813682;-65
2024/03/04 00:37:21;;;;;;;7.37;3.30;;;;;;;;;;768159;181;919592;-65
2024/03/04 00:39:46;;;;;;;6.00;4.17;;;;;;;;;;779988;180;917656;-65
2024/03/04 00:42:12;;;;;;;6.60;4.17;;;;;;;;;;773543;180;931198;-65
2024/03/04 00:44:38;;;;;;;5.77;4.20;;;;;;;;;;765836;180;915657;-65
2024/03/04 00:47:04;;;;;;;8.70;5.00;;;;;;;;;;768923;180;919477;-65
2024/03/04 00:49:30;;;;;;;7.10;4.57;;;;;;;;;;766264;180;913923;-63
2024/03/04 00:51:56;;;;;;;6.73;4.77;;;;;;;;;;770200;180;930789;-65
2024/03/04 00:54:22;;;;;;;8.37;5.13;;;;;;;;;;763170;180;945820;-65
2024/03/04 00:56:47;;;;;;;12.50;6.00;;;;;;;;;;771804;180;920821;-65
2024/03/04 00:59:13;;;;;;;17.10;5.87;;;;;;;;;;766437;180;918883;-65
2024/03/04 01:01:39;;;;;;;8.20;5.70;;;;;;;;;;768741;180;920796;-65
2024/03/04 01:04:05;;;;;;;9.93;6.22;;;;;;;;;;767182;180;920041;-65
2024/03/04 01:06:31;;;;;;;8.67;5.00;;;;;;;;;;767742;180;922878;-65
2024/03/04 01:08:57;;;;;;;10.07;6.03;;;;;;;;;;763256;180;908056;-65
2024/03/04 01:11:22;;;;;;;10.30;5.63;;;;;;;;;;773638;179;920302;-65
2024/03/04 01:13:48;;;;;;;8.50;5.80;;;;;;;;;;766728;179;918866;-65
2024/03/04 01:16:14;;;;;;;14.70;6.83;;;;;;;;;;769151;179;917331;-65
2024/03/04 01:18:40;;;;;;;12.80;6.83;;;;;;;;;;763235;183;917082;-65
2024/03/04 01:21:06;;;;;;;12.10;7.10;;;;;;;;;;776145;179;918813;-64
2024/03/04 01:23:32;;;;;;;15.07;9.33;;;;;;;;;;764654;181;897798;-65
2024/03/04 01:25:57;;;;;;;10.23;6.97;;;;;;;;;;766036;181;919773;-65
2024/03/04 01:28:23;;;;;;;8.60;6.40;;;;;;;;;;767360;180;916012;-65
2024/03/04 01:30:50;;;;;;;8.93;6.73;;;;;;;;;;768256;180;916513;-64
2024/03/04 01:33:16;;;;;;;13.40;4.90;;;;;;;;;;772945;181;918447;-65
2024/03/04 01:35:42;;;;;;;8.30;4.30;;;;;;;;;;769638;180;1022315;-67
2024/03/04 01:38:08;;;;;;;6.57;4.90;;;;;;;;;;766511;180;927978;-65
2024/03/04 01:40:34;;;;;;;9.40;5.10;;;;;;;;;;760309;180;917918;-65
2024/03/04 01:42:59;;;;;;;6.90;4.33;;;;;;;;;;772072;180;918963;-65
2024/03/04 01:45:25;;;;;;;6.17;3.83;;;;;;;;;;776933;180;918193;-65
2024/03/04 01:47:53;;;;;;;7.20;4.20;;;;;;;;;;770432;180;944057;-64
2024/03/04 01:50:19;;;;;;;6.65;4.10;;;;;;;;;;766828;180;1012634;-65
2024/03/04 01:52:47;;;;;;;11.77;4.10;;;;;;;;;;773675;180;902758;-64
2024/03/04 01:55:11;;;;;;;7.90;4.70;;;;;;;;;;770228;180;920998;-64
2024/03/04 01:57:37;;;;;;;6.30;3.97;;;;;;;;;;768466;180;1022977;-65
2024/03/04 02:00:11;;;;;;;5.87;3.70;;;;;;;;;;767914;180;923378;-65
2024/03/04 02:02:29;;;;;;;5.73;3.60;;;;;;;;;;762863;180;892858;-65
2024/03/04 02:04:55;;;;;;;8.27;4.50;;;;;;;;;;766153;180;918327;-65
2024/03/04 02:07:20;;;;;;;5.37;3.23;;;;;;;;;;763627;180;939501;-66
2024/03/04 02:09:46;;;;;;;7.30;3.73;;;;;;;;;;774462;180;920927;-65
2024/03/04 02:12:12;;;;;;;6.53;2.87;;;;;;;;;;764700;180;921687;-65
2024/03/04 02:14:38;;;;;;;7.70;3.85;;;;;;;;;;770426;180;921105;-65
2024/03/04 02:17:05;;;;;;;8.27;3.40;;;;;;;;;;766279;180;920744;-65
2024/03/04 02:19:31;;;;;;;7.23;4.10;;;;;;;;;;770595;180;917258;-65
2024/03/04 02:21:58;;;;;;;7.80;2.97;;;;;;;;;;768570;178;920881;-64
2024/03/04 02:24:24;;;;;;;6.93;3.47;;;;;;;;;;771768;179;915634;-65
2024/03/04 02:26:50;;;;;;;9.60;3.40;;;;;;;;;;765824;179;922006;-65
2024/03/04 02:29:16;;;;;;;5.50;2.87;;;;;;;;;;763249;179;919651;-65
2024/03/04 02:31:41;;;;;;;7.77;3.07;;;;;;;;;;771609;179;919772;-65
2024/03/04 02:34:07;;;;;;;6.00;2.80;;;;;;;;;;766160;180;918898;-65
2024/03/04 02:36:33;;;;;;;4.00;2.30;;;;;;;;;;768432;180;919386;-65
2024/03/04 02:38:59;;;;;;;5.47;2.65;;;;;;;;;;767473;180;919143;-65
2024/03/04 02:41:26;;;;;;;6.30;2.67;;;;;;;;;;767999;180;1033596;-65
2024/03/04 02:43:51;;;;;;;4.70;2.73;;;;;;;;;;765152;180;925106;-65
2024/03/04 02:46:18;;;;;;;3.60;2.77;;;;;;;;;;763576;180;917608;-65
2024/03/04 02:48:43;;;;;;;5.43;2.93;;;;;;;;;;771744;181;918482;-65
2024/03/04 02:51:09;;;;;;;6.87;3.20;;;;;;;;;;767836;180;918858;-65
2024/03/04 02:53:35;;;;;;;5.53;2.40;;;;;;;;;;762836;180;918460;-65
2024/03/04 02:56:01;;;;;;;6.13;3.17;;;;;;;;;;767769;180;1021153;-65
2024/03/04 02:58:27;;;;;;;5.00;2.80;;;;;;;;;;769579;180;919578;-66
2024/03/04 03:00:52;;;;;;;4.40;2.60;;;;;;;;;;760541;180;918363;-64
2024/03/04 03:03:22;;;;;;;6.10;2.60;;;;;;;;;;763019;180;919110;-66
2024/03/04 03:05:44;;;;;;;4.87;2.20;;;;;;;;;;772110;180;918747;-65
2024/03/04 03:08:10;;;;;;;5.23;2.80;;;;;;;;;;767390;180;926837;-65
2024/03/04 03:10:36;;;;;;;6.17;2.60;;;;;;;;;;765141;180;916530;-65
2024/03/04 03:13:01;;;;;;;9.70;3.03;;;;;;;;;;769624;180;915757;-66
2024/03/04 03:15:27;;;;;;;5.40;3.00;;;;;;;;;;757761;180;918355;-65
2024/03/04 03:17:53;;;;;;;6.65;3.05;;;;;;;;;;768429;180;919129;-66
2024/03/04 03:20:20;;;;;;;5.75;2.40;;;;;;;;;;768680;180;918911;-66
2024/03/04 03:22:45;;;;;;;7.80;3.50;;;;;;;;;;771297;180;914799;-65
2024/03/04 03:25:12;;;;;;;6.13;3.03;;;;;;;;;;767711;180;916972;-65
2024/03/04 03:27:37;;;;;;;5.20;3.00;;;;;;;;;;767704;180;884001;-64
2024/03/04 03:30:04;;;;;;;6.23;3.67;;;;;;;;;;771113;180;917987;-65
2024/03/04 03:32:30;;;;;;;4.47;2.83;;;;;;;;;;761609;180;1021216;-64
2024/03/04 03:34:56;;;;;;;4.37;2.70;;;;;;;;;;770313;179;919919;-64
2024/03/04 03:37:21;;;;;;;5.53;3.28;;;;;;;;;;770994;179;919964;-65
2024/03/04 03:39:47;;;;;;;4.97;3.10;;;;;;;;;;766143;179;919774;-65
2024/03/04 03:42:13;;;;;;;10.33;3.27;;;;;;;;;;768752;179;922551;-66
2024/03/04 03:44:39;;;;;;;3.97;3.05;;;;;;;;;;764271;179;938454;-65
2024/03/04 03:47:05;;;;;;;8.37;3.67;;;;;;;;;;772362;180;955797;-65
2024/03/04 03:49:31;;;;;;;7.33;3.30;;;;;;;;;;766390;180;914722;-65
2024/03/04 03:51:57;;;;;;;6.17;3.87;;;;;;;;;;768767;180;916837;-65
2024/03/04 03:54:23;;;;;;;6.27;3.50;;;;;;;;;;769256;180;1017988;-65
2024/03/04 03:56:48;;;;;;;7.83;3.30;;;;;;;;;;770818;180;922041;-65
2024/03/04 03:59:14;;;;;;;5.82;3.17;;;;;;;;;;768897;180;919184;-65
2024/03/04 04:01:40;;;;;;;4.60;2.97;;;;;;;;;;772367;180;912555;-65
2024/03/04 04:04:06;;;;;;;4.90;2.70;;;;;;;;;;763779;180;920295;-64
2024/03/04 04:06:32;;;;;;;7.78;3.45;;;;;;;;;;766355;180;919043;-64
2024/03/04 04:08:58;;;;;;;6.40;2.70;;;;;;;;;;772210;180;907664;-65
2024/03/04 04:11:24;;;;;;;8.20;2.97;;;;;;;;;;764355;180;917302;-65
2024/03/04 04:13:49;;;;;;;4.63;3.17;;;;;;;;;;768404;180;999042;-65
2024/03/04 04:16:15;;;;;;;6.50;3.90;;;;;;;;;;758829;180;927574;-64
2024/03/04 04:18:41;;;;;;;9.97;3.77;;;;;;;;;;776111;180;918513;-65
2024/03/04 04:21:08;;;;;;;11.07;6.40;;;;;;;;;;763664;180;919745;-65
2024/03/04 04:23:34;;;;;;;10.25;6.28;;;;;;;;;;765179;180;985637;-64
2024/03/04 04:25:59;;;;;;;11.77;6.33;;;;;;;;;;773903;180;918528;-65
2024/03/04 04:28:25;;;;;;;14.23;8.90;;;;;;;;;;762259;180;919302;-65
2024/03/04 04:30:51;;;;;;;10.57;6.57;;;;;;;;;;768486;180;919513;-65
2024/03/04 04:33:18;;;;;;;14.17;5.73;;;;;;;;;;776542;180;859582;-65
2024/03/04 04:35:43;;;;;;;7.63;4.67;;;;;;;;;;767841;180;920834;-64
2024/03/04 04:38:09;;;;;;;9.23;6.40;;;;;;;;;;768480;181;949965;-64
2024/03/04 04:40:34;;;;;;;9.10;5.33;;;;;;;;;;763721;180;928107;-64
2024/03/04 04:43:01;;;;;;;9.30;5.20;;;;;;;;;;772221;180;919671;-65
2024/03/04 04:45:26;;;;;;;9.47;6.43;;;;;;;;;;775055;178;918492;-64
2024/03/04 04:47:52;;;;;;;15.80;4.13;;;;;;;;;;764635;179;919882;-65
2024/03/04 04:50:18;;;;;;;8.23;4.80;;;;;;;;;;771727;179;918388;-64
2024/03/04 04:52:44;;;;;;;14.03;4.90;;;;;;;;;;770643;179;1024885;-65
2024/03/04 04:55:09;;;;;;;5.00;3.50;;;;;;;;;;765202;179;918491;-65
2024/03/04 04:57:35;;;;;;;8.57;3.60;;;;;;;;;;767910;180;919407;-64
2024/03/04 05:00:01;;;;;;;6.15;4.32;;;;;;;;;;762881;180;924977;-66
2024/03/04 05:02:28;;;;;;;8.03;3.40;;;;;;;;;;769512;179;915633;-65
2024/03/04 05:04:53;;;;;;;5.60;3.33;;;;;;;;;;765842;180;941719;-64
2024/03/04 05:07:19;;;;;;;9.73;4.50;;;;;;;;;;781803;180;649851;-65
2024/03/04 05:09:45;;;;;;;7.70;4.27;;;;;;;;;;771470;180;626877;-65
2024/03/04 05:12:11;;;;;;;8.27;4.33;;;;;;;;;;770296;180;638055;-65
2024/03/04 05:14:37;;;;;;;6.93;3.97;;;;;;;;;;769542;181;649024;-64
2024/03/04 05:17:02;;;;;;;6.53;4.40;;;;;;;;;;762325;180;919907;-65
2024/03/04 05:19:34;;;;;;;10.15;3.95;;;;;;;;;;768673;180;879911;-64
2024/03/04 05:21:54;;;;;;;7.60;3.60;;;;;;;;;;773147;180;712486;-64
2024/03/04 05:24:20;;;;;;;12.70;3.47;;;;;;;;;;773488;180;624850;-64
2024/03/04 05:26:46;;;;;;;8.37;3.50;;;;;;;;;;771629;180;651071;-65
2024/03/04 05:29:11;;;;;;;9.97;4.80;;;;;;;;;;780788;180;638445;-65
2024/03/04 05:31:39;;;;;;;7.73;3.93;;;;;;;;;;770744;180;910396;-64
2024/03/04 05:34:06;;;;;;;11.30;4.23;;;;;;;;;;756734;183;918881;-64
2024/03/04 05:36:31;;;;;;;8.33;5.73;;;;;;;;;;766187;180;919558;-64
2024/03/04 05:38:57;;;;;;;8.20;5.07;;;;;;;;;;777793;180;864115;-65
2024/03/04 05:41:23;;;;;;;9.13;4.93;;;;;;;;;;766992;180;919126;-65
2024/03/04 05:43:48;;;;;;;9.73;5.67;;;;;;;;;;767061;180;773538;-65
2024/03/04 05:46:14;;;;;;;16.03;9.97;;;;;;;;;;770658;180;658610;-65
2024/03/04 05:48:40;;;;;;;196.17;92.27;;;;;;;;;;767865;180;915831;-65
2024/03/04 05:51:06;;;;;;;56.10;27.50;;;;;;;;;;768556;180;1023886;-64
2024/03/04 05:53:32;;;;;;;66.57;36.37;;;;;;;;;;770955;180;681937;-65
2024/03/04 05:55:58;;;;;;;58.50;20.80;;;;;;;;;;770458;177;620575;-65
2024/03/04 05:58:26;;;;;;;26.80;16.50;;;;;;;;;;768241;179;917995;-64
2024/03/04 06:00:49;;;;;;;19.67;12.13;;;;;;;;;;766022;180;899029;-65
2024/03/04 06:03:15;;;;;;;21.67;10.17;;;;;;;;;;772973;179;918179;-65
2024/03/04 06:05:41;;;;;;;15.10;8.60;;;;;;;;;;761860;179;919492;-64
2024/03/04 06:08:07;;;;;;;13.60;8.13;;;;;;;;;;761773;180;910457;-65
2024/03/04 06:10:34;;;;;;;15.07;5.70;;;;;;;;;;774167;180;905136;-65
2024/03/04 06:12:59;;;;;;;13.73;7.93;;;;;;;;;;765045;180;917623;-65
2024/03/04 06:15:24;;;;;;;17.05;7.65;;;;;;;;;;765323;180;921415;-64
2024/03/04 06:17:50;;;;;;;12.97;5.67;;;;;;;;;;770673;180;917690;-65
2024/03/04 06:20:16;;;;;;;12.83;4.60;;;;;;;;;;765460;180;1016746;-66
2024/03/04 06:22:42;;;;;;;10.33;6.50;;;;;;;;;;766775;180;919025;-65
2024/03/04 06:25:08;;;;;;;10.63;6.13;;;;;;;;;;766533;181;912344;-65
2024/03/04 06:27:34;;;;;;;11.83;5.40;;;;;;;;;;781632;180;917861;-64
2024/03/04 06:30:00;;;;;;;11.10;5.50;;;;;;;;;;772883;180;917594;-65
2024/03/04 06:32:26;;;;;;;9.17;5.27;;;;;;;;;;764911;180;907966;-66
2024/03/04 06:34:51;;;;;;;10.70;6.40;;;;;;;;;;772445;180;916643;-65
2024/03/04 06:37:17;;;;;;;9.70;5.13;;;;;;;;;;768817;180;914985;-64
2024/03/04 06:39:46;;;;;;;11.15;4.95;;;;;;;;;;763085;180;1017364;-65
2024/03/04 06:42:12;;;;;;;8.73;4.60;;;;;;;;;;772104;181;919722;-65
2024/03/04 06:44:38;;;;;;;22.30;4.67;;;;;;;;;;765868;181;967349;-65
2024/03/04 06:47:04;;;;;;;8.03;4.57;;;;;;;;;;768998;180;870101;-65
2024/03/04 06:49:30;;;;;;;6.20;4.43;;;;;;;;;;760023;180;918364;-65
2024/03/04 06:51:55;;;;;;;13.17;6.87;;;;;;;;;;771542;180;918274;-65
2024/03/04 06:54:22;;;;;;;8.83;3.73;;;;;;;;;;768908;180;917094;-66
2024/03/04 06:56:47;;;;;;;6.57;3.27;;;;;;;;;;762902;180;1028896;-65
2024/03/04 06:59:14;;;;;;;11.93;4.27;;;;;;;;;;772743;180;917292;-65
2024/03/04 07:01:40;;;;;;;6.77;4.30;;;;;;;;;;767109;180;918745;-66
2024/03/04 07:04:07;;;;;;;5.37;3.43;;;;;;;;;;762672;180;914598;-66
2024/03/04 07:06:31;;;;;;;9.13;4.45;;;;;;;;;;771206;180;916972;-66
2024/03/04 07:08:58;;;;;;;7.80;4.20;;;;;;;;;;762762;179;938203;-65
2024/03/04 07:11:24;;;;;;;8.60;3.60;;;;;;;;;;764604;179;918679;-65
2024/03/04 07:13:49;;;;;;;8.17;4.40;;;;;;;;;;763706;179;917857;-66
2024/03/04 07:16:15;;;;;;;14.70;4.30;;;;;;;;;;767190;179;921065;-65
2024/03/04 07:18:42;;;;;;;5.53;3.70;;;;;;;;;;764847;180;931040;-65
2024/03/04 07:21:08;;;;;;;6.43;3.97;;;;;;;;;;767257;180;920342;-65
2024/03/04 07:23:33;;;;;;;13.80;4.27;;;;;;;;;;775619;180;915636;-66
2024/03/04 07:25:59;;;;;;;3.80;2.97;;;;;;;;;;772798;180;917138;-66
2024/03/04 07:28:25;;;;;;;8.83;3.07;;;;;;;;;;769132;180;919143;-65
2024/03/04 07:30:51;;;;;;;5.83;3.40;;;;;;;;;;775071;180;919952;-65
2024/03/04 07:33:17;;;;;;;12.50;3.97;;;;;;;;;;765706;180;911236;-65
2024/03/04 07:35:43;;;;;;;10.93;3.40;;;;;;;;;;767874;180;919297;-66
2024/03/04 07:38:10;;;;;;;5.00;3.23;;;;;;;;;;766644;180;825158;-67
2024/03/04 07:40:35;;;;;;;6.40;3.60;;;;;;;;;;774513;180;920036;-67
2024/03/04 07:43:02;;;;;;;4.63;2.83;;;;;;;;;;774767;180;639006;-66
2024/03/04 07:45:26;;;;;;;10.83;3.40;;;;;;;;;;767135;180;929905;-67
2024/03/04 07:47:52;;;;;;;6.60;3.27;;;;;;;;;;773466;180;918253;-67
2024/03/04 07:50:18;;;;;;;5.27;2.27;;;;;;;;;;773077;180;830831;-66
2024/03/04 07:52:45;;;;;;;5.13;2.83;;;;;;;;;;769413;180;916687;-65
2024/03/04 07:55:12;;;;;;;6.00;2.60;;;;;;;;;;770585;180;914528;-68
2024/03/04 07:57:36;;;;;;;3.77;2.20;;;;;;;;;;767177;180;917441;-67
2024/03/04 08:00:03;;;;;;;5.20;2.50;;;;;;;;;;762655;180;948617;-66
2024/03/04 08:02:28;;;;;;;5.67;2.33;;;;;;;;;;766877;180;920610;-67
2024/03/04 08:04:53;;;;;;;4.10;2.00;;;;;;;;;;787654;180;919867;-65
2024/03/04 08:07:19;;;;;;;3.50;2.17;;;;;;;;;;772539;180;926015;-66
2024/03/04 08:09:45;;;;;;;6.85;2.42;;;;;;;;;;770564;180;921278;-67
2024/03/04 08:12:11;;;;;;;7.10;2.40;;;;;;;;;;772775;180;914030;-66
2024/03/04 08:14:38;;;;;;;6.73;2.80;;;;;;;;;;766980;180;919023;-67
2024/03/04 08:17:03;;;;;;;6.07;2.90;;;;;;;;;;761797;180;997504;-66
2024/03/04 08:19:30;;;;;;;5.03;2.50;;;;;;;;;;774152;179;911439;-67
2024/03/04 08:21:55;;;;;;;4.33;2.27;;;;;;;;;;774531;179;883925;-67
2024/03/04 08:24:20;;;;;;;8.97;2.70;;;;;;;;;;768853;179;868344;-66
2024/03/04 08:26:47;;;;;;;5.80;2.70;;;;;;;;;;775866;179;923266;-67
2024/03/04 08:29:13;;;;;;;4.70;2.33;;;;;;;;;;780534;180;925771;-66
2024/03/04 08:31:39;;;;;;;4.30;2.37;;;;;;;;;;763386;180;920738;-66
2024/03/04 08:34:05;;;;;;;6.93;3.67;;;;;;;;;;764428;180;915611;-66
2024/03/04 08:36:31;;;;;;;5.87;2.60;;;;;;;;;;765805;180;1019468;-67
2024/03/04 08:38:57;;;;;;;4.60;1.93;;;;;;;;;;761550;180;933149;-66
2024/03/04 08:41:24;;;;;;;5.07;2.10;;;;;;;;;;764925;180;918275;-66
2024/03/04 08:43:48;;;;;;;6.30;2.27;;;;;;;;;;771457;179;675046;-66
2024/03/04 08:46:14;;;;;;;5.80;3.00;;;;;;;;;;769727;180;922270;-66
2024/03/04 08:48:40;;;;;;;5.03;2.80;;;;;;;;;;771072;180;928642;-66
2024/03/04 08:51:07;;;;;;;3.87;1.93;;;;;;;;;;776077;180;915812;-67
2024/03/04 08:53:32;;;;;;;4.33;1.83;;;;;;;;;;766611;180;920292;-67
2024/03/04 08:55:58;;;;;;;7.43;2.20;;;;;;;;;;766418;181;629470;-66
2024/03/04 08:58:24;;;;;;;3.17;1.80;;;;;;;;;;764018;180;906275;-67
2024/03/04 09:00:49;;;;;;;3.30;1.90;;;;;;;;;;774190;181;913831;-66
2024/03/04 09:03:15;;;;;;;7.30;3.10;;;;;;;;;;767551;180;919380;-66
2024/03/04 09:05:44;;;;;;;4.90;2.23;;;;;;;;;;766233;180;922592;-66
2024/03/04 09:08:08;;;;;;;8.53;3.33;;;;;;;;;;773407;181;629280;-66
2024/03/04 09:10:33;;;;;;;5.60;2.10;;;;;;;;;;767727;180;1022680;-66
2024/03/04 09:13:01;;;;;;;3.40;1.80;;;;;;;;;;774576;180;1017544;-66
2024/03/04 09:15:25;;;;;;;6.50;2.53;;;;;;;;;;771548;179;816939;-58
2024/03/04 09:17:51;;;;;;;6.40;1.90;;;;;;;;;;776986;177;813705;-59
2024/03/04 09:20:17;;;;;;;4.20;2.13;;;;;;;;;;781243;177;859896;-58
2024/03/04 09:22:43;;;;;;;5.33;2.23;;;;;;;;;;783251;177;919039;-58
2024/03/04 09:25:09;;;;;;;6.13;2.00;;;;;;;;;;787572;177;633321;-58
2024/03/04 09:27:36;;;;;;;5.57;1.80;;;;;;;;;;777838;177;911459;-58
2024/03/04 09:30:00;;;;;;;5.40;2.27;;;;;;;;;;778073;176;918922;-60
2024/03/04 09:32:26;;;;;;;7.80;2.53;;;;;;;;;;787085;176;903713;-59
2024/03/04 09:34:52;;;;;;;4.10;2.00;;;;;;;;;;777723;178;812978;-57
2024/03/04 09:37:18;;;;;;;4.53;2.20;;;;;;;;;;785339;176;637684;-58
2024/03/04 09:39:43;;;;;;;8.03;3.93;;;;;;;;;;782264;177;921261;-59
2024/03/04 09:42:09;;;;;;;5.23;2.67;;;;;;;;;;782549;177;817126;-58
2024/03/04 09:44:35;;;;;;;7.90;2.42;;;;;;;;;;782794;177;908604;-58
2024/03/04 09:47:01;;;;;;;4.10;1.97;;;;;;;;;;781103;177;962790;-59
2024/03/04 09:49:29;;;;;;;12.63;2.27;;;;;;;;;;770459;179;1141535;-57
2024/03/04 09:51:54;;;;;;;3.50;2.00;;;;;;;;;;786782;177;820867;-59
2024/03/04 09:54:20;;;;;;;4.33;2.50;;;;;;;;;;779649;177;919424;-58
2024/03/04 09:56:46;;;;;;;3.63;2.20;;;;;;;;;;785916;175;751381;-58
2024/03/04 09:59:12;;;;;;;6.17;2.20;;;;;;;;;;780369;176;824037;-58
2024/03/04 10:01:37;;;;;;;5.07;2.83;;;;;;;;;;782202;177;848475;-58
2024/03/04 10:04:03;;;;;;;5.47;2.50;;;;;;;;;;784733;178;755605;-58
2024/03/04 10:06:29;;;;;;;5.17;3.03;;;;;;;;;;783914;177;801404;-58
2024/03/04 10:08:55;;;;;;;3.97;2.33;;;;;;;;;;774618;176;919787;-58
2024/03/04 10:11:21;;;;;;;4.83;2.33;;;;;;;;;;780304;177;906581;-60
2024/03/04 10:13:47;;;;;;;4.30;2.80;;;;;;;;;;770787;180;628421;-59
2024/03/04 10:16:15;;;;;;;4.50;2.40;;;;;;;;;;779283;176;817054;-60
2024/03/04 10:18:39;;;;;;;4.17;2.20;;;;;;;;;;782203;176;616520;-60
2024/03/04 10:21:05;;;;;;;5.43;2.23;;;;;;;;;;783743;177;635261;-59
2024/03/04 10:23:31;;;;;;;4.70;2.20;;;;;;;;;;782104;177;636020;-59
2024/03/04 10:26:02;;;;;;;5.40;2.20;;;;;;;;;;783550;177;628693;-60
2024/03/04 10:28:35;;;;;;;7.25;2.33;;;;;;;;;;778386;177;917478;-58
2024/03/04 10:31:06;;;;;;;3.90;1.90;;;;;;;;;;773433;180;818505;-58
2024/03/04 10:33:32;;;;;;;5.33;1.93;;;;;;;;;;784612;177;635835;-60
2024/03/04 10:36:16;;;;;;;4.00;2.20;;;;;;;;;;783827;177;848484;-58
2024/03/04 10:38:41;;;;;;;4.87;2.00;;;;;;;;;;779307;177;816941;-58
2024/03/04 10:41:06;;;;;;;5.40;1.97;;;;;;;;;;778868;176;983363;-58
2024/03/04 10:43:32;;;;;;;3.53;1.53;;;;;;;;;;775811;178;919034;-59
2024/03/04 10:45:58;;;;;;;5.27;1.77;;;;;;;;;;778743;176;917664;-58
2024/03/04 10:48:24;;;;;;;7.33;2.00;;;;;;;;;;779124;176;920951;-58
2024/03/04 10:50:50;;;;;;;3.13;1.73;;;;;;;;;;784866;177;630206;-60
2024/03/04 10:53:16;;;;;;;4.67;1.90;;;;;;;;;;780414;177;620121;-60
2024/03/04 10:55:41;;;;;;;3.00;2.00;;;;;;;;;;784079;177;632018;-60
2024/03/04 10:58:07;;;;;;;4.33;1.90;;;;;;;;;;788431;177;626994;-58
2024/03/04 11:00:33;;;;;;;9.70;2.47;;;;;;;;;;785236;176;623974;-60
2024/03/04 11:03:16;;;;;;;6.53;2.57;;;;;;;;;;783654;177;636788;-60
2024/03/04 11:05:40;;;;;;;4.00;2.10;;;;;;;;;;781353;177;920269;-58
2024/03/04 11:08:06;;;;;;;4.37;2.43;;;;;;;;;;784258;177;919265;-59
2024/03/04 11:10:33;;;;;;;5.13;2.20;;;;;;;;;;780615;177;820933;-57
2024/03/04 11:13:14;;;;;;;6.00;2.10;;;;;;;;;;779050;177;626350;-59
2024/03/04 11:15:40;;;;;;;6.30;2.50;;;;;;;;;;776385;177;920994;-59
2024/03/04 11:18:07;;;;;;;3.33;2.07;;;;;;;;;;784905;176;916617;-58
2024/03/04 11:20:32;;;;;;;4.30;2.13;;;;;;;;;;783727;176;817632;-60
2024/03/04 11:22:58;;;;;;;8.87;3.07;;;;;;;;;;775727;177;917598;-57
2024/03/04 11:25:24;;;;;;;6.93;2.50;;;;;;;;;;776641;177;909005;-58
2024/03/04 11:27:50;;;;;;;7.60;2.40;;;;;;;;;;786138;177;630103;-58
2024/03/04 11:30:15;;;;;;;5.30;2.00;;;;;;;;;;778207;178;918272;-59
2024/03/04 11:32:41;;;;;;;5.10;1.60;;;;;;;;;;780233;178;878686;-58
2024/03/04 11:35:10;;;;;;;6.23;2.13;;;;;;;;;;783581;177;748010;-59
2024/03/04 11:37:42;;;;;;;3.80;2.17;;;;;;;;;;784650;175;909919;-57
2024/03/04 11:40:08;;;;;;;4.43;2.43;;;;;;;;;;776725;177;638794;-57
2024/03/04 11:42:34;;;;;;;4.20;2.23;;;;;;;;;;783417;176;791638;-58
2024/03/04 11:45:00;;;;;;;3.25;2.08;;;;;;;;;;785682;177;917959;-58
2024/03/04 11:47:30;;;;;;;4.10;2.00;;;;;;;;;;784444;176;909893;-59
2024/03/04 11:49:56;;;;;;;10.20;2.67;;;;;;;;;;780116;177;917876;-57
2024/03/04 11:52:23;;;;;;;3.77;2.00;;;;;;;;;;777910;178;919280;-58
2024/03/04 11:54:47;;;;;;;7.30;2.70;;;;;;;;;;786995;177;626189;-59
2024/03/04 11:57:13;;;;;;;6.63;2.50;;;;;;;;;;782577;176;912430;-59
2024/03/04 11:59:40;;;;;;;4.40;2.17;;;;;;;;;;782796;177;915109;-57
2024/03/04 12:02:08;;;;;;;4.57;2.20;;;;;;;;;;785785;177;856680;-57
2024/03/04 12:04:34;;;;;;;4.37;2.50;;;;;;;;;;773807;177;1021782;-59
2024/03/04 12:07:00;;;;;;;5.90;2.17;;;;;;;;;;782755;177;918337;-56
2024/03/04 12:09:26;;;;;;;8.70;2.27;;;;;;;;;;782188;177;920470;-57
2024/03/04 12:11:52;;;;;;;4.13;2.20;;;;;;;;;;778906;178;767130;-57
2024/03/04 12:14:18;;;;;;;5.93;2.63;;;;;;;;;;785317;177;621407;-59
2024/03/04 12:16:44;;;;;;;6.60;2.70;;;;;;;;;;783885;177;920053;-59
2024/03/04 12:19:10;;;;;;;5.40;2.80;;;;;;;;;;786010;177;868238;-58
2024/03/04 12:21:36;;;;;;;4.43;2.67;;;;;;;;;;782764;177;916159;-59
2024/03/04 12:24:02;;;;;;;4.80;3.17;;;;;;;;;;779510;177;919544;-57
2024/03/04 12:26:27;;;;;;;5.53;2.43;;;;;;;;;;780464;178;861547;-57
2024/03/04 12:28:58;;;;;;;5.73;2.70;;;;;;;;;;783337;176;631745;-59
2024/03/04 12:31:24;;;;;;;5.73;2.90;;;;;;;;;;783065;177;715701;-57
2024/03/04 12:33:50;;;;;;;3.97;2.13;;;;;;;;;;781218;177;923537;-58
2024/03/04 12:36:16;;;;;;;7.03;2.50;;;;;;;;;;781119;177;920695;-57
2024/03/04 12:38:41;;;;;;;4.97;2.30;;;;;;;;;;777623;177;629516;-57
2024/03/04 12:41:07;;;;;;;3.70;1.87;;;;;;;;;;780866;176;892568;-59
2024/03/04 12:43:34;;;;;;;4.23;2.60;;;;;;;;;;782843;177;918405;-57
2024/03/04 12:45:59;;;;;;;3.50;1.90;;;;;;;;;;777551;177;919720;-57
2024/03/04 12:48:25;;;;;;;4.83;2.50;;;;;;;;;;781961;177;815411;-58
2024/03/04 12:50:51;;;;;;;5.10;2.47;;;;;;;;;;790234;177;627379;-58
2024/03/04 12:53:19;;;;;;;3.97;2.33;;;;;;;;;;783046;177;817187;-59
2024/03/04 12:55:42;;;;;;;4.70;2.30;;;;;;;;;;782985;177;715011;-57
2024/03/04 12:58:08;;;;;;;4.47;2.37;;;;;;;;;;778527;177;867399;-59
2024/03/04 13:00:35;;;;;;;9.13;2.27;;;;;;;;;;769079;179;939649;-58
2024/03/04 13:03:00;;;;;;;5.43;2.43;;;;;;;;;;780823;177;632119;-59
2024/03/04 13:05:26;;;;;;;7.03;3.27;;;;;;;;;;780583;176;814341;-58
2024/03/04 13:07:51;;;;;;;8.70;3.30;;;;;;;;;;784881;176;914838;-59
2024/03/04 13:10:17;;;;;;;3.73;2.40;;;;;;;;;;780617;177;919644;-57
2024/03/04 13:12:43;;;;;;;4.72;2.42;;;;;;;;;;786810;177;855057;-59
2024/03/04 13:15:09;;;;;;;6.33;2.80;;;;;;;;;;779750;178;919043;-58
2024/03/04 13:17:35;;;;;;;7.27;3.93;;;;;;;;;;781805;178;816707;-59
2024/03/04 13:20:02;;;;;;;4.00;2.67;;;;;;;;;;777451;177;921760;-58
2024/03/04 13:22:27;;;;;;;8.27;2.70;;;;;;;;;;772741;177;941777;-58
2024/03/04 13:24:55;;;;;;;3.60;2.17;;;;;;;;;;775968;178;919775;-57
2024/03/04 13:27:19;;;;;;;5.37;2.73;;;;;;;;;;771240;179;912353;-58
2024/03/04 13:29:44;;;;;;;5.70;2.30;;;;;;;;;;775795;177;932388;-57
2024/03/04 13:32:10;;;;;;;6.23;2.00;;;;;;;;;;780425;177;920924;-57
2024/03/04 13:34:36;;;;;;;4.33;2.27;;;;;;;;;;782591;175;902192;-58
2024/03/04 13:37:02;;;;;;;4.95;2.25;;;;;;;;;;780088;177;922152;-59
2024/03/04 13:39:28;;;;;;;8.53;2.57;;;;;;;;;;784054;176;906441;-57
2024/03/04 13:41:54;;;;;;;8.20;2.30;;;;;;;;;;780748;177;919269;-58
2024/03/04 13:44:20;;;;;;;3.70;2.50;;;;;;;;;;780493;176;1012638;-58
2024/03/04 13:46:46;;;;;;;8.53;2.30;;;;;;;;;;785973;175;915800;-59
2024/03/04 13:49:11;;;;;;;4.07;1.80;;;;;;;;;;774779;177;942061;-59
2024/03/04 13:51:37;;;;;;;3.73;1.73;;;;;;;;;;780159;177;918482;-59
2024/03/04 13:54:03;;;;;;;4.00;1.97;;;;;;;;;;771631;177;1021753;-58
2024/03/04 13:56:29;;;;;;;3.87;2.13;;;;;;;;;;781426;177;918646;-58
2024/03/04 13:58:55;;;;;;;3.47;2.00;;;;;;;;;;780441;177;916734;-57
2024/03/04 14:01:21;;;;;;;6.95;2.87;;;;;;;;;;779425;177;919348;-59
2024/03/04 14:03:46;;;;;;;4.20;1.87;;;;;;;;;;786546;177;897928;-58
2024/03/04 14:06:14;;;;;;;4.53;2.00;;;;;;;;;;773764;176;938693;-57
2024/03/04 14:08:39;;;;;;;8.33;2.27;;;;;;;;;;782900;175;941873;-59
2024/03/04 14:11:04;;;;;;;5.70;2.30;;;;;;;;;;783563;178;875581;-58
2024/03/04 14:13:30;;;;;;;5.00;2.13;;;;;;;;;;781586;177;859545;-59
2024/03/04 14:15:56;;;;;;;4.80;2.30;;;;;;;;;;772996;177;874286;-57
2024/03/04 14:18:21;;;;;;;8.43;2.43;;;;;;;;;;778762;176;916856;-57